createdAt,value
2022-08-17T00:00:43.601Z,21.30
2022-08-17T00:03:11.618Z,21.30
2022-08-17T00:05:48.840Z,21.20
2022-08-17T00:08:21.223Z,21.20
2022-08-17T00:10:49.435Z,21.20
2022-08-17T00:13:20.685Z,21.10
2022-08-17T00:15:48.221Z,21.10
2022-08-17T00:19:01.433Z,21.00
2022-08-17T00:21:10.274Z,21.00
2022-08-17T00:23:38.174Z,21.00
2022-08-17T00:26:05.393Z,21.00
2022-08-17T00:28:33.270Z,20.90
2022-08-17T00:31:00.977Z,21.00
2022-08-17T00:33:31.115Z,20.90
2022-08-17T00:35:59.320Z,20.90
2022-08-17T00:38:29.456Z,20.90
2022-08-17T00:41:01.075Z,20.80
2022-08-17T00:43:37.859Z,20.80
2022-08-17T00:46:15.940Z,20.80
2022-08-17T00:48:44.079Z,20.70
2022-08-17T00:51:30.610Z,20.70
2022-08-17T00:54:29.727Z,20.70
2022-08-17T00:57:00.665Z,20.60
2022-08-17T00:59:33.990Z,20.60
2022-08-17T01:02:02.528Z,20.60
2022-08-17T01:04:31.428Z,20.60
2022-08-17T01:07:01.177Z,20.50
2022-08-17T01:09:28.506Z,20.50
2022-08-17T01:11:55.493Z,20.50
2022-08-17T01:14:23.801Z,20.50
2022-08-17T01:16:54.222Z,20.40
2022-08-17T01:19:27.073Z,20.40
2022-08-17T01:22:06.554Z,20.60
2022-08-17T01:24:35.576Z,20.40
2022-08-17T01:27:04.068Z,20.40
2022-08-17T01:29:41.352Z,20.30
2022-08-17T01:32:09.770Z,20.30
2022-08-17T01:34:42.530Z,20.20
2022-08-17T01:37:12.721Z,20.20
2022-08-17T01:40:06.196Z,20.10
2022-08-17T01:43:03.999Z,20.10
2022-08-17T01:45:33.787Z,20.10
2022-08-17T01:48:01.418Z,20.00
2022-08-17T01:50:32.500Z,20.00
2022-08-17T01:53:04.475Z,19.90
2022-08-17T01:55:42.438Z,19.90
2022-08-17T01:58:09.905Z,19.90
2022-08-17T02:00:46.860Z,19.90
2022-08-17T02:03:26.644Z,19.80
2022-08-17T02:05:53.922Z,19.70
2022-08-17T02:08:37.314Z,19.70
2022-08-17T02:11:11.405Z,19.60
2022-08-17T02:13:39.194Z,19.60
2022-08-17T02:16:06.801Z,19.60
2022-08-17T02:18:34.072Z,19.60
2022-08-17T02:21:01.054Z,19.80
2022-08-17T02:23:30.467Z,19.60
2022-08-17T02:26:00.210Z,19.50
2022-08-17T02:28:28.555Z,19.50
2022-08-17T02:31:01.844Z,19.50
2022-08-17T02:33:43.114Z,19.50
2022-08-17T02:36:12.661Z,19.50
2022-08-17T02:38:41.193Z,19.50
2022-08-17T02:41:08.799Z,19.50
2022-08-17T02:43:35.849Z,19.50
2022-08-17T02:46:03.463Z,19.50
2022-08-17T02:48:32.067Z,19.70
2022-08-17T02:51:00.313Z,19.50
2022-08-17T02:53:27.965Z,19.50
2022-08-17T02:56:03.041Z,19.40
2022-08-17T02:58:34.682Z,19.40
2022-08-17T03:01:08.642Z,19.40
2022-08-17T03:03:40.224Z,19.40
2022-08-17T03:06:08.190Z,19.40
2022-08-17T03:08:37.430Z,19.40
2022-08-17T03:11:05.173Z,19.40
2022-08-17T03:13:32.459Z,19.40
2022-08-17T03:15:59.506Z,19.40
2022-08-17T03:18:28.011Z,19.30
2022-08-17T03:20:57.543Z,19.30
2022-08-17T03:23:25.392Z,19.60
2022-08-17T03:25:54.139Z,19.30
2022-08-17T03:28:22.526Z,19.30
2022-08-17T03:30:51.321Z,19.20
2022-08-17T03:33:19.462Z,19.30
2022-08-17T03:35:47.327Z,19.30
2022-08-17T03:38:17.107Z,19.30
2022-08-17T03:40:56.879Z,19.30
2022-08-17T03:43:31.791Z,19.40
2022-08-17T03:46:27.866Z,19.40
2022-08-17T03:49:15.284Z,19.50
2022-08-17T03:52:01.274Z,19.50
2022-08-17T03:54:46.912Z,19.70
2022-08-17T03:57:14.453Z,19.70
2022-08-17T03:59:41.503Z,19.80
2022-08-17T04:02:17.456Z,19.90
2022-08-17T04:04:44.910Z,20.00
2022-08-17T04:07:12.185Z,20.10
2022-08-17T04:09:39.252Z,20.20
2022-08-17T04:12:06.647Z,20.30
2022-08-17T04:14:53.426Z,20.50
2022-08-17T04:17:24.631Z,20.70
2022-08-17T04:19:51.791Z,21.30
2022-08-17T04:22:30.713Z,22.10
2022-08-17T04:25:04.507Z,23.20
2022-08-17T04:27:31.757Z,24.20
2022-08-17T04:29:58.890Z,25.10
2022-08-17T04:33:03.902Z,25.90
2022-08-17T04:35:18.866Z,26.70
2022-08-17T04:37:46.049Z,27.60
2022-08-17T04:40:31.827Z,28.30
2022-08-17T04:43:18.794Z,29.00
2022-08-17T04:45:55.266Z,29.90
2022-08-17T04:48:35.207Z,30.60
2022-08-17T04:51:07.484Z,31.20
2022-08-17T04:53:35.304Z,31.90
2022-08-17T04:56:02.439Z,32.50
2022-08-17T04:58:29.565Z,33.10
2022-08-17T05:00:57.218Z,33.70
2022-08-17T05:03:24.302Z,34.20
2022-08-17T05:05:51.433Z,34.70
2022-08-17T05:08:20.580Z,35.20
2022-08-17T05:10:48.424Z,35.70
2022-08-17T05:13:22.338Z,36.20
2022-08-17T05:15:55.395Z,36.70
2022-08-17T05:18:22.666Z,37.20
2022-08-17T05:20:52.476Z,37.60
2022-08-17T05:23:22.182Z,38.10
2022-08-17T05:25:51.522Z,38.40
2022-08-17T05:28:22.935Z,38.80
2022-08-17T05:30:55.927Z,39.10
2022-08-17T05:33:26.746Z,39.60
2022-08-17T05:35:55.712Z,39.90
2022-08-17T05:38:25.158Z,40.40
2022-08-17T05:40:53.230Z,40.70
2022-08-17T05:43:22.551Z,41.10
2022-08-17T05:46:16.226Z,41.40
2022-08-17T05:48:45.153Z,41.80
2022-08-17T05:51:30.825Z,42.20
2022-08-17T05:54:20.340Z,42.60
2022-08-17T05:56:57.795Z,43.20
2022-08-17T05:59:55.969Z,43.30
2022-08-17T06:02:50.809Z,43.70
2022-08-17T06:05:34.962Z,43.90
2022-08-17T06:08:21.985Z,44.20
2022-08-17T06:11:10.048Z,44.60
2022-08-17T06:13:42.829Z,44.80
2022-08-17T06:16:31.104Z,44.60
2022-08-17T06:19:39.984Z,44.90
2022-08-17T06:22:09.826Z,45.40
2022-08-17T06:25:10.428Z,45.50
2022-08-17T06:28:16.295Z,45.70
2022-08-17T06:31:01.372Z,45.90
2022-08-17T06:33:36.132Z,46.10
2022-08-17T06:36:30.346Z,46.40
2022-08-17T06:39:22.054Z,46.60
2022-08-17T06:42:58.809Z,46.90
2022-08-17T06:45:14.382Z,46.90
2022-08-17T06:47:45.242Z,46.80
2022-08-17T06:50:27.375Z,46.60
2022-08-17T06:52:59.496Z,46.40
2022-08-17T06:55:38.037Z,46.40
2022-08-17T06:58:15.624Z,46.40
2022-08-17T07:00:47.095Z,46.00
2022-08-17T07:03:44.466Z,45.70
2022-08-17T07:06:28.955Z,45.60
2022-08-17T07:09:02.730Z,45.20
2022-08-17T07:11:50.540Z,44.70
2022-08-17T07:14:31.654Z,44.10
2022-08-17T07:17:02.880Z,43.10
2022-08-17T07:19:33.719Z,41.70
2022-08-17T07:22:18.914Z,40.50
2022-08-17T07:24:59.587Z,39.30
2022-08-17T07:27:37.143Z,38.50
2022-08-17T07:30:24.632Z,37.80
2022-08-17T07:32:59.109Z,37.20
2022-08-17T07:35:37.841Z,36.60
2022-08-17T07:38:26.778Z,36.30
2022-08-17T07:40:57.677Z,36.10
2022-08-17T07:43:40.565Z,36.00
2022-08-17T07:46:52.152Z,35.90
2022-08-17T07:49:25.102Z,35.70
2022-08-17T07:51:57.788Z,35.50
2022-08-17T07:54:37.844Z,35.20
2022-08-17T07:57:10.575Z,35.10
2022-08-17T07:59:40.789Z,34.80
2022-08-17T08:02:17.103Z,34.70
2022-08-17T08:05:01.082Z,34.60
2022-08-17T08:07:37.418Z,34.50
2022-08-17T08:10:27.597Z,34.30
2022-08-17T08:13:14.549Z,34.20
2022-08-17T08:15:54.275Z,34.10
2022-08-17T08:18:53.438Z,34.10
2022-08-17T08:22:20.928Z,34.10
2022-08-17T08:25:00.051Z,34.00
2022-08-17T08:28:06.207Z,34.10
2022-08-17T08:30:40.827Z,33.80
2022-08-17T08:33:17.364Z,33.70
2022-08-17T08:35:54.403Z,33.70
2022-08-17T08:38:53.530Z,33.80
2022-08-17T08:41:36.929Z,33.80
2022-08-17T08:45:00.030Z,33.70
2022-08-17T08:47:42.501Z,33.70
2022-08-17T08:50:42.814Z,33.40
2022-08-17T08:53:39.505Z,33.30
2022-08-17T08:56:31.797Z,33.30
2022-08-17T08:59:16.700Z,33.30
2022-08-17T09:02:04.211Z,33.20
2022-08-17T09:05:15.545Z,33.10
2022-08-17T09:08:01.646Z,33.10
2022-08-17T09:10:51.747Z,33.00
2022-08-17T09:13:46.699Z,32.70
2022-08-17T09:16:52.372Z,32.60
2022-08-17T09:19:30.458Z,32.80
2022-08-17T09:22:31.482Z,32.80
2022-08-17T09:25:23.399Z,32.80
2022-08-17T09:28:07.552Z,33.00
2022-08-17T09:30:46.337Z,33.00
2022-08-17T09:33:28.687Z,33.00
2022-08-17T09:36:00.252Z,33.10
2022-08-17T09:38:47.329Z,33.30
2022-08-17T09:41:23.875Z,33.50
2022-08-17T09:43:54.438Z,33.60
2022-08-17T09:46:38.862Z,33.30
2022-08-17T09:49:11.757Z,33.30
2022-08-17T09:52:02.304Z,33.20
2022-08-17T09:54:39.054Z,32.90
2022-08-17T09:57:29.195Z,32.80
2022-08-17T10:00:16.223Z,32.90
2022-08-17T10:02:54.508Z,32.90
2022-08-17T10:05:26.077Z,33.10
2022-08-17T10:08:21.876Z,33.20
2022-08-17T10:10:58.975Z,33.30
2022-08-17T10:13:52.944Z,33.20
2022-08-17T10:16:43.892Z,33.20
2022-08-17T10:19:50.545Z,33.20
2022-08-17T10:22:49.871Z,33.10
2022-08-17T10:25:54.021Z,32.60
2022-08-17T10:28:28.818Z,32.50
2022-08-17T10:31:30.866Z,32.50
2022-08-17T10:34:00.748Z,32.60
2022-08-17T10:36:46.415Z,32.40
2022-08-17T10:39:50.575Z,32.40
2022-08-17T10:42:33.341Z,32.30
2022-08-17T10:45:26.392Z,32.30
2022-08-17T10:47:55.716Z,32.40
2022-08-17T10:50:59.972Z,32.50
2022-08-17T10:53:33.367Z,32.40
2022-08-17T10:56:12.476Z,32.50
2022-08-17T10:58:54.120Z,32.60
2022-08-17T11:02:00.157Z,32.90
2022-08-17T11:04:50.883Z,33.00
2022-08-17T11:07:17.981Z,33.20
2022-08-17T11:09:51.267Z,33.50
2022-08-17T11:12:43.447Z,33.60
2022-08-17T11:15:22.453Z,33.80
2022-08-17T11:18:06.607Z,33.60
2022-08-17T11:21:07.341Z,33.40
2022-08-17T11:24:01.655Z,32.80
2022-08-17T11:26:36.346Z,32.50
2022-08-17T11:29:09.611Z,31.80
2022-08-17T11:31:43.601Z,31.70
2022-08-17T11:34:19.530Z,31.70
2022-08-17T11:37:07.859Z,31.60
2022-08-17T11:39:49.647Z,31.60
2022-08-17T11:42:26.529Z,31.60
2022-08-17T11:44:57.379Z,31.80
2022-08-17T11:48:27.758Z,31.90
2022-08-17T11:51:17.236Z,31.80
2022-08-17T11:53:47.388Z,31.70
2022-08-17T11:56:41.244Z,31.80
2022-08-17T11:59:35.939Z,32.00
2022-08-17T12:02:19.974Z,32.20
2022-08-17T12:05:02.867Z,32.20
2022-08-17T12:07:32.648Z,32.40
2022-08-17T12:10:01.175Z,32.40
2022-08-17T12:12:35.468Z,32.20
2022-08-17T12:15:11.809Z,31.80
2022-08-17T12:17:40.219Z,31.50
2022-08-17T12:20:29.378Z,31.60
2022-08-17T12:23:30.217Z,31.50
2022-08-17T12:26:01.003Z,31.50
2022-08-17T12:28:33.292Z,31.70
2022-08-17T12:31:05.865Z,31.40
2022-08-17T12:33:36.062Z,31.40
2022-08-17T12:36:07.502Z,31.10
2022-08-17T12:38:37.886Z,30.60
2022-08-17T12:41:28.410Z,30.30
2022-08-17T12:44:02.090Z,30.00
2022-08-17T12:46:33.475Z,29.80
2022-08-17T12:49:37.512Z,29.70
2022-08-17T12:52:19.783Z,29.30
2022-08-17T12:54:52.539Z,29.00
2022-08-17T12:57:20.322Z,28.90
2022-08-17T12:59:53.344Z,28.90
2022-08-17T13:02:41.358Z,28.90
2022-08-17T13:05:36.004Z,28.90
2022-08-17T13:08:12.861Z,28.90
2022-08-17T13:10:40.223Z,28.90
2022-08-17T13:13:29.028Z,28.90
2022-08-17T13:16:03.324Z,28.80
2022-08-17T13:18:36.504Z,28.70
2022-08-17T13:21:03.774Z,28.70
2022-08-17T13:23:32.439Z,28.70
2022-08-17T13:26:15.857Z,28.70
2022-08-17T13:28:49.997Z,28.80
2022-08-17T13:31:28.473Z,28.80
2022-08-17T13:34:36.946Z,28.80
2022-08-17T13:37:25.672Z,28.70
2022-08-17T13:39:57.835Z,28.70
2022-08-17T13:42:50.390Z,28.70
2022-08-17T13:45:35.209Z,28.60
2022-08-17T13:48:15.956Z,28.40
2022-08-17T13:51:07.268Z,28.40
2022-08-17T13:53:37.284Z,28.40
2022-08-17T13:56:37.183Z,28.50
2022-08-17T13:59:12.287Z,28.50
2022-08-17T14:01:44.134Z,28.60
2022-08-17T14:04:21.053Z,28.60
2022-08-17T14:06:57.865Z,28.60
2022-08-17T14:09:37.392Z,28.60
2022-08-17T14:12:10.738Z,28.70
2022-08-17T14:14:39.416Z,28.80
2022-08-17T14:17:07.940Z,28.90
2022-08-17T14:19:35.743Z,29.00
2022-08-17T14:22:04.956Z,29.10
2022-08-17T14:24:44.507Z,29.10
2022-08-17T14:27:12.303Z,29.20
2022-08-17T14:29:41.304Z,29.30
2022-08-17T14:32:31.285Z,29.30
2022-08-17T14:34:59.870Z,29.20
2022-08-17T14:37:28.664Z,29.20
2022-08-17T14:39:57.149Z,29.20
2022-08-17T14:42:26.844Z,29.10
2022-08-17T14:44:55.586Z,29.00
2022-08-17T14:47:22.730Z,29.00
2022-08-17T14:49:50.096Z,28.90
2022-08-17T14:52:23.148Z,28.80
2022-08-17T14:54:51.863Z,28.80
2022-08-17T14:57:26.006Z,28.70
2022-08-17T15:00:02.418Z,28.70
2022-08-17T15:02:31.126Z,28.80
2022-08-17T15:05:00.256Z,28.90
2022-08-17T15:07:30.723Z,28.90
2022-08-17T15:10:02.698Z,29.00
2022-08-17T15:12:33.620Z,29.00
2022-08-17T15:15:05.192Z,29.10
2022-08-17T15:17:45.254Z,29.10
2022-08-17T15:20:17.202Z,29.20
2022-08-17T15:22:46.835Z,29.20
2022-08-17T15:25:14.127Z,29.10
2022-08-17T15:27:41.498Z,29.10
2022-08-17T15:30:10.021Z,29.10
2022-08-17T15:32:40.610Z,29.20
2022-08-17T15:35:11.802Z,29.20
2022-08-17T15:37:40.363Z,29.30
2022-08-17T15:40:09.689Z,29.40
2022-08-17T15:42:37.829Z,29.40
2022-08-17T15:45:09.388Z,29.30
2022-08-17T15:47:37.250Z,29.30
2022-08-17T15:50:06.402Z,29.30
2022-08-17T15:52:40.417Z,29.20
2022-08-17T15:55:11.936Z,29.10
2022-08-17T15:57:39.703Z,29.00
2022-08-17T16:00:09.373Z,28.90
2022-08-17T16:03:45.875Z,28.80
2022-08-17T16:05:28.609Z,28.70
2022-08-17T16:07:59.838Z,28.60
2022-08-17T16:10:35.401Z,28.60
2022-08-17T16:13:03.955Z,28.40
2022-08-17T16:15:32.022Z,28.40
2022-08-17T16:17:59.683Z,28.30
2022-08-17T16:20:27.131Z,28.30
2022-08-17T16:22:55.144Z,28.30
2022-08-17T16:25:50.304Z,28.20
2022-08-17T16:28:17.663Z,28.20
2022-08-17T16:30:44.816Z,28.10
2022-08-17T16:33:12.738Z,28.10
2022-08-17T16:35:41.973Z,28.10
2022-08-17T16:38:09.609Z,28.00
2022-08-17T16:40:38.109Z,27.90
2022-08-17T16:43:10.655Z,27.90
2022-08-17T16:45:40.736Z,27.80
2022-08-17T16:48:10.098Z,27.70
2022-08-17T16:50:37.406Z,27.60
2022-08-17T16:53:11.794Z,27.50
2022-08-17T16:55:39.131Z,27.40
2022-08-17T16:58:06.805Z,27.40
2022-08-17T17:00:34.257Z,27.30
2022-08-17T17:03:19.743Z,27.20
2022-08-17T17:06:24.632Z,27.10
2022-08-17T17:09:16.664Z,27.10
2022-08-17T17:11:46.766Z,27.00
2022-08-17T17:14:39.247Z,26.90
2022-08-17T17:17:26.021Z,26.80
2022-08-17T17:20:14.192Z,26.80
2022-08-17T17:23:05.029Z,26.60
2022-08-17T17:25:39.674Z,26.50
2022-08-17T17:28:26.370Z,26.40
2022-08-17T17:31:17.535Z,26.30
2022-08-17T17:34:00.449Z,26.20
2022-08-17T17:36:51.931Z,26.10
2022-08-17T17:39:43.761Z,26.00
2022-08-17T17:42:16.711Z,25.90
2022-08-17T17:45:04.799Z,25.80
2022-08-17T17:47:34.413Z,25.80
2022-08-17T17:50:04.331Z,25.70
2022-08-17T17:53:00.032Z,25.70
2022-08-17T17:55:37.520Z,25.70
2022-08-17T17:58:19.687Z,25.70
2022-08-17T18:00:51.453Z,25.70
2022-08-17T18:03:59.227Z,25.60
2022-08-17T18:06:50.577Z,25.60
2022-08-17T18:09:44.175Z,25.50
2022-08-17T18:12:25.186Z,25.50
2022-08-17T18:15:04.262Z,25.40
2022-08-17T18:17:31.791Z,25.40
2022-08-17T18:19:58.986Z,25.30
2022-08-17T18:22:26.423Z,25.20
2022-08-17T18:24:57.962Z,25.10
2022-08-17T18:27:27.897Z,25.10
2022-08-17T18:29:57.956Z,25.00
2022-08-17T18:32:34.745Z,24.90
2022-08-17T18:35:27.661Z,24.90
2022-08-17T18:38:19.444Z,24.80
2022-08-17T18:41:05.569Z,24.70
2022-08-17T18:43:44.479Z,24.70
2022-08-17T18:46:35.190Z,24.60
2022-08-17T18:49:02.375Z,24.60
2022-08-17T18:51:42.741Z,24.50
2022-08-17T18:54:23.997Z,24.40
2022-08-17T18:56:56.945Z,24.40
2022-08-17T18:59:29.701Z,24.30
2022-08-17T19:02:01.911Z,24.30
2022-08-17T19:04:40.197Z,24.30
2022-08-17T19:07:23.196Z,24.30
2022-08-17T19:10:05.343Z,24.30
2022-08-17T19:12:40.391Z,24.20
2022-08-17T19:15:10.444Z,24.20
2022-08-17T19:18:02.290Z,24.10
2022-08-17T19:20:45.531Z,24.10
2022-08-17T19:23:27.581Z,24.00
2022-08-17T19:25:58.409Z,24.00
2022-08-17T19:28:54.583Z,24.00
2022-08-17T19:31:26.515Z,23.90
2022-08-17T19:33:56.146Z,24.00
2022-08-17T19:36:35.438Z,24.00
2022-08-17T19:39:18.829Z,24.00
2022-08-17T19:42:01.839Z,24.10
2022-08-17T19:44:47.156Z,24.10
2022-08-17T19:47:54.275Z,24.10
2022-08-17T19:50:41.597Z,24.10
2022-08-17T19:53:23.736Z,24.20
2022-08-17T19:55:58.050Z,24.20
2022-08-17T19:58:38.822Z,24.20
2022-08-17T20:01:13.737Z,24.20
2022-08-17T20:04:18.454Z,24.10
2022-08-17T20:06:49.562Z,24.10
2022-08-17T20:09:40.092Z,24.00
2022-08-17T20:12:19.220Z,23.90
2022-08-17T20:15:07.449Z,23.90
2022-08-17T20:17:41.521Z,23.80
2022-08-17T20:20:27.395Z,23.80
2022-08-17T20:23:18.383Z,23.80
2022-08-17T20:26:14.869Z,23.70
2022-08-17T20:29:07.692Z,23.70
2022-08-17T20:31:42.698Z,23.60
2022-08-17T20:34:33.478Z,23.50
2022-08-17T20:37:04.337Z,23.50
2022-08-17T20:39:40.543Z,23.40
2022-08-17T20:42:22.850Z,23.40
2022-08-17T20:44:53.799Z,23.30
2022-08-17T20:47:32.741Z,23.30
2022-08-17T20:50:02.721Z,23.20
2022-08-17T20:52:35.783Z,23.20
2022-08-17T20:55:04.450Z,23.20
2022-08-17T20:57:34.358Z,23.10
2022-08-17T21:00:30.111Z,23.10
2022-08-17T21:03:22.553Z,23.00
2022-08-17T21:06:17.072Z,23.00
2022-08-17T21:08:53.939Z,23.00
2022-08-17T21:12:02.968Z,22.90
2022-08-17T21:14:59.990Z,22.90
2022-08-17T21:17:40.108Z,22.80
2022-08-17T21:20:39.101Z,22.80
2022-08-17T21:23:25.253Z,22.70
2022-08-17T21:26:29.678Z,22.70
2022-08-17T21:29:30.812Z,22.60
2022-08-17T21:32:03.108Z,22.60
2022-08-17T21:34:33.195Z,22.50
2022-08-17T21:37:22.385Z,22.50
2022-08-17T21:39:54.339Z,22.50
2022-08-17T21:42:48.994Z,22.40
2022-08-17T21:45:30.575Z,22.40
2022-08-17T21:48:24.016Z,22.40
2022-08-17T21:51:08.961Z,22.30
2022-08-17T21:53:50.143Z,22.30
2022-08-17T21:56:27.232Z,22.30
2022-08-17T21:59:07.578Z,22.20
2022-08-17T22:01:40.807Z,22.20
2022-08-17T22:04:11.512Z,22.20
2022-08-17T22:06:52.515Z,22.10
2022-08-17T22:09:46.702Z,22.10
2022-08-17T22:12:22.401Z,22.10
2022-08-17T22:15:04.207Z,22.10
2022-08-17T22:17:46.431Z,22.00
2022-08-17T22:20:20.676Z,22.00
2022-08-17T22:23:06.655Z,22.00
2022-08-17T22:25:40.633Z,22.00
2022-08-17T22:28:10.557Z,22.00
2022-08-17T22:30:43.561Z,22.20
2022-08-17T22:33:32.858Z,22.00
2022-08-17T22:36:22.022Z,22.00
2022-08-17T22:38:50.187Z,21.90
2022-08-17T22:41:26.303Z,21.90
2022-08-17T22:43:57.427Z,21.80
2022-08-17T22:46:26.183Z,21.80
2022-08-17T22:48:57.900Z,21.70
2022-08-17T22:51:30.933Z,21.70
2022-08-17T22:54:20.873Z,21.60
2022-08-17T22:57:18.710Z,21.60
2022-08-17T22:59:52.468Z,21.60
2022-08-17T23:02:30.615Z,21.60
2022-08-17T23:05:18.875Z,21.50
2022-08-17T23:07:47.333Z,21.50
2022-08-17T23:10:14.819Z,21.50
2022-08-17T23:12:42.158Z,21.40
2022-08-17T23:15:17.792Z,21.40
2022-08-17T23:17:46.057Z,21.40
2022-08-17T23:20:15.509Z,21.40
2022-08-17T23:22:52.092Z,21.30
2022-08-17T23:25:29.669Z,21.40
2022-08-17T23:27:58.889Z,21.50
2022-08-17T23:30:30.286Z,21.30
2022-08-17T23:33:03.421Z,21.30
2022-08-17T23:35:39.218Z,21.30
2022-08-17T23:38:12.029Z,21.30
2022-08-17T23:40:40.746Z,21.30
2022-08-17T23:43:24.163Z,21.30
2022-08-17T23:45:55.068Z,21.30
2022-08-17T23:48:35.084Z,21.20
2022-08-17T23:51:08.664Z,21.20
2022-08-17T23:53:37.111Z,21.20
2022-08-17T23:56:10.361Z,21.20
2022-08-17T23:58:43.000Z,21.20
